Date,TemperatureHighF,TemperatureAvgF,TemperatureLowF,DewpointHighF,DewpointAvgF,DewpointLowF,HumidityHigh,HumidityAvg,HumidityLow,PressureMaxIn,PressureMinIn,WindSpeedMaxMPH,WindSpeedAvgMPH,GustSpeedMaxMPH,PrecipitationSumIn
2013-1-1,35.4,27.4,15.4,24.8,11.6,-2.2,78,54,42,29.91,29.65,0,0,0,0.00
2013-1-2,25.7,16.3,5.9,6.8,-41.6,-99.9,59,45,39,30.06,29.83,0,0,0,0.00
2013-1-3,21.2,10.9,1.9,-0.4,-56.9,-99.9,47,42,39,30.12,29.94,0,0,0,0.00
2013-1-4,36.7,25.5,11.7,21.2,-13.3,-99.9,74,57,46,29.94,29.71,0,0,0,0.00
2013-1-5,36.5,29.8,20.3,23.0,14.6,8.6,72,55,38,30.21,29.77,0,0,0,0.00
2013-1-6,39.4,29.5,20.3,26.6,20.1,8.6,79,70,55,30.18,29.88,0,0,0,0.00
2013-1-7,34.7,27.6,19.2,26.6,20.5,14.0,90,78,59,30.39,29.91,0,0,0,0.00
2013-1-8,44.1,32.3,20.5,28.4,22.6,15.8,94,71,43,30.33,30.18,0,0,0,0.00
2013-1-9,40.5,33.1,22.6,32.0,25.8,15.8,87,75,59,30.39,29.91,0,0,0,0.00
2013-1-10,43.5,38.6,28.6,28.4,21.7,15.8,69,51,40,30.50,29.94,0,0,0,0.00
2013-1-11,39.6,33.1,23.9,35.6,24.7,15.8,92,72,55,30.50,30.18,0,0,0,0.00
2013-1-12,45.1,40.3,37.6,42.8,39.6,35.6,98,96,89,30.21,30.09,0,0,0,0.00
2013-1-13,47.3,44.1,40.3,48.2,44.3,41.0,98,98,97,30.15,29.94,0,0,0,0.00
2013-1-14,58.8,49.1,38.5,51.8,41.5,23.0,98,77,39,30.21,29.85,0,0,0,0.00
2013-1-15,42.3,36.2,30.4,26.6,23.2,17.6,76,59,48,30.33,30.21,0,0,0,0.00
2013-1-16,33.6,31.6,28.6,32.0,26.0,19.4,96,83,60,30.27,29.80,0,0,0,0.00
2013-1-17,40.8,31.3,25.3,33.8,22.7,5.0,98,75,42,30.09,29.80,0,0,0,0.00
2013-1-18,25.2,18.0,12.7,6.8,-13.4,-99.9,47,38,34,30.42,30.06,0,0,0,0.00
2013-1-19,45.0,33.5,19.6,26.6,16.3,1.4,65,49,39,30.33,29.85,0,0,0,0.00
2013-1-20,51.6,38.4,26.8,32.0,21.5,3.2,78,52,30,29.88,29.47,0,0,0,0.00
2013-1-21,28.4,23.9,18.1,12.2,2.0,-4.0,63,41,33,30.06,29.80,0,0,0,0.00
2013-1-22,25.5,19.6,10.8,10.4,-8.7,-99.9,66,50,33,30.03,29.71,0,0,0,0.00
2013-1-23,10.4,6.6,1.9,-99.9,-99.9,-99.9,49,49,49,30.12,30.00,0,0,0,0.00
2013-1-24,15.3,7.1,-0.6,-9.4,-90.3,-99.9,49,43,35,30.15,29.94,0,0,0,0.00
2013-1-25,20.7,14.0,6.1,-2.2,-45.0,-99.9,45,36,34,30.21,30.00,0,0,0,0.00
2013-1-26,23.2,16.6,11.7,3.2,-30.2,-99.9,64,46,34,30.15,29.94,0,0,0,0.00
2013-1-27,27.0,18.4,12.2,1.4,-34.0,-99.9,46,36,33,30.39,30.12,0,0,0,0.00
2013-1-28,29.5,21.8,12.9,17.6,-6.3,-99.9,83,50,33,30.39,30.00,0,0,0,0.00
2013-1-29,37.8,30.0,23.4,30.2,23.3,17.6,87,77,60,30.18,30.00,0,0,0,0.00
2013-1-30,54.9,42.1,32.7,55.4,41.8,30.2,98,97,88,30.12,29.41,0,0,0,0.00
2013-1-31,57.6,44.7,30.4,57.2,32.7,6.8,98,66,37,29.53,28.88,0,0,0,0.00
2013-2-1,33.3,27.2,18.3,12.2,5.1,-0.4,57,40,33,30.03,29.47,0,0,0,0.00
2013-2-2,30.0,23.1,14.4,6.8,3.1,-0.4,54,44,35,30.18,30.00,0,0,0,0.00
2013-2-3,29.5,24.9,20.3,15.8,11.6,6.8,80,60,44,30.03,29.80,0,0,0,0.00
2013-2-9,41.3,19.8,13.8,31.5,4.3,-99.9,57,49,38,30.09,29.86,1,-9,0,0.00
2013-2-10,35.8,19.4,5.9,8.7,1.7,-6.4,56,46,31,30.30,30.09,1,1,0,0.00
2013-2-11,38.5,27.3,13.3,37.4,21.5,1.7,98,79,56,30.27,29.56,1,1,0,0.00
2013-2-12,46.0,37.9,32.2,34.2,28.3,23.6,98,71,43,29.80,29.50,1,1,0,0.00
2013-2-13,41.9,33.0,24.4,27.7,20.0,15.6,83,60,41,29.83,29.65,1,1,0,0.00
2013-2-14,41.5,34.2,28.0,24.6,19.2,16.1,78,55,39,29.92,29.65,1,1,0,0.00
2013-2-15,45.9,35.4,23.9,32.5,27.5,19.1,86,73,56,29.95,29.83,1,1,0,0.00
2013-2-16,42.3,35.2,29.5,33.5,27.0,9.9,93,73,41,29.92,29.65,1,1,0,0.00
2013-2-17,30.7,22.5,16.2,21.0,8.6,-1.3,96,57,35,29.68,29.24,1,1,0,0.00
2013-2-18,30.6,21.5,13.5,4.2,0.0,-2.6,49,39,30,30.04,29.47,1,1,0,0.00
2013-2-19,41.7,33.5,21.4,39.8,18.4,-1.8,98,57,34,30.06,29.47,1,1,0,0.00
2013-2-20,39.0,33.8,26.6,37.2,20.5,10.3,98,61,40,29.68,29.42,1,1,0,0.00
2013-2-21,30.9,26.6,22.8,12.5,9.0,5.2,56,47,39,30.09,29.65,1,1,0,0.67
2013-2-22,39.2,29.4,20.8,22.4,16.3,10.4,74,58,42,30.33,30.06,1,1,0,0.00
2013-2-23,41.9,35.4,30.0,34.3,28.1,22.4,92,75,58,30.30,29.92,1,1,0,0.00
2013-2-24,36.7,33.6,29.8,36.2,33.1,29.3,98,98,92,29.92,29.68,1,1,0,0.00
2013-2-25,40.5,32.5,24.4,33.2,28.9,23.9,98,87,62,30.18,29.86,1,1,0,0.00
2013-2-26,43.7,35.2,28.4,37.4,30.6,27.7,98,84,58,30.30,30.15,1,1,0,0.00
2013-2-27,41.5,37.6,34.0,38.1,34.9,28.2,98,90,69,30.15,29.53,1,1,0,0.00
2013-2-28,45.5,38.3,33.4,38.1,34.5,32.2,98,87,63,29.59,29.47,1,1,0,2.14
2013-3-1,42.3,36.0,31.1,32.2,28.3,24.9,94,75,52,29.65,29.47,1,1,0,0.00
2013-3-2,46.9,37.7,30.2,30.7,27.5,24.5,90,68,43,29.65,29.53,1,1,0,0.00
2013-3-3,41.4,36.0,31.6,35.6,30.7,22.9,96,81,64,29.62,29.50,1,1,0,0.00
2013-3-4,38.8,33.8,29.7,23.9,20.4,17.3,68,58,47,29.68,29.47,1,1,0,0.00
2013-3-5,46.0,37.7,30.0,32.7,25.7,18.4,80,62,45,30.04,29.68,1,1,0,0.00
2013-3-6,39.4,35.9,32.9,36.7,32.8,25.6,98,89,59,30.18,30.04,1,1,0,0.00
2013-3-7,35.4,33.1,30.9,31.7,27.5,22.9,95,80,63,30.09,29.98,1,1,0,0.34
2013-3-8,44.8,36.4,29.1,29.7,22.8,16.1,98,63,35,30.12,29.95,1,1,0,0.00
2013-3-9,45.9,36.1,26.2,26.4,21.5,15.9,88,57,36,30.33,30.12,1,1,0,0.00
2013-3-10,43.3,33.7,23.0,31.9,26.5,21.0,95,76,52,30.39,30.27,1,1,0,0.00
2013-3-11,40.6,36.6,32.9,37.3,33.2,30.0,94,87,80,30.30,30.09,1,1,0,0.00
2013-3-12,47.5,43.0,39.0,45.3,42.0,37.4,98,96,87,30.15,29.71,1,1,0,0.00
2013-3-13,52.9,43.2,31.3,45.3,32.7,18.5,98,70,38,29.77,29.65,1,1,0,0.00
2013-3-14,40.6,31.7,21.2,24.5,16.1,1.9,76,54,38,29.77,29.59,1,1,0,0.00
2013-3-15,40.3,28.9,17.6,28.4,9.0,-0.4,89,44,30,29.83,29.56,1,1,0,0.00
2013-3-16,38.5,31.7,22.6,29.8,14.2,7.3,94,50,33,29.86,29.59,1,1,0,0.00
2013-3-17,36.1,28.2,21.4,13.6,5.7,-3.2,55,39,30,30.27,29.83,1,1,0,0.00
2013-3-18,36.9,27.9,14.4,21.1,7.9,-5.2,60,43,31,30.42,30.18,1,1,0,0.00
2013-3-19,35.2,31.9,25.3,34.0,30.4,20.3,98,94,58,30.21,29.59,1,1,0,0.00
2013-3-20,40.3,30.9,23.5,28.8,21.4,16.9,96,70,49,29.74,29.62,1,1,0,0.00
2013-3-21,42.8,31.7,20.7,24.9,18.9,13.7,82,61,40,29.77,29.56,1,1,0,0.00
2013-3-22,45.1,34.6,28.2,24.5,18.7,13.6,84,54,35,29.68,29.53,1,1,0,0.00
2013-3-23,43.0,34.9,24.8,22.5,17.3,13.3,68,49,34,29.68,29.53,1,1,0,0.00
2013-3-24,47.7,37.9,29.8,27.3,22.2,17.8,77,54,37,29.77,29.65,1,1,0,0.00
2013-3-25,46.9,36.6,27.0,31.8,26.9,20.1,79,68,50,29.77,29.53,1,1,0,0.83
2013-3-26,48.9,41.2,31.6,29.0,19.9,15.2,75,44,28,29.74,29.50,1,1,0,0.00
2013-3-27,53.8,41.0,27.7,34.1,23.2,16.4,84,51,29,29.83,29.65,1,1,0,0.00
2013-3-28,51.1,41.8,34.9,36.5,30.7,24.9,94,67,39,29.98,29.83,1,1,0,0.00
2013-3-29,57.7,45.0,33.1,38.8,28.8,24.6,83,56,30,29.98,29.89,1,1,0,0.00
2013-3-30,57.2,44.3,32.2,33.0,27.6,19.9,72,53,29,30.06,29.95,1,1,0,0.00
2013-3-31,56.5,42.7,26.1,35.7,27.2,18.1,76,56,29,30.09,29.80,1,1,0,0.00
2013-4-1,57.6,45.6,34.3,46.1,36.2,10.5,98,72,35,29.80,29.44,1,1,0,0.00
2013-4-2,42.6,35.1,28.6,15.5,10.5,7.9,44,36,29,29.86,29.71,1,1,0,0.00
2013-4-3,45.0,37.0,28.8,13.6,10.7,7.7,47,34,25,30.04,29.83,1,1,0,0.00
2013-4-4,54.5,41.1,27.9,24.8,16.1,8.5,48,37,23,30.21,29.95,1,1,0,0.00
2013-4-5,56.7,45.6,37.2,35.1,24.0,16.4,59,43,28,29.98,29.59,1,1,0,0.00
2013-4-6,43.5,36.4,29.1,16.4,8.8,4.5,43,32,23,30.27,29.83,1,1,0,0.00
2013-4-7,54.7,41.5,24.8,33.4,24.1,7.3,72,50,36,30.27,29.95,1,1,0,0.00
2013-4-8,62.2,49.2,39.2,43.6,35.1,30.6,91,61,34,30.06,29.89,1,1,0,0.00
2013-4-9,63.1,50.3,42.8,47.9,40.8,35.6,96,72,42,30.06,29.83,1,1,0,0.00
2013-4-10,55.6,47.7,43.7,49.6,43.3,38.3,98,85,67,29.98,29.83,1,1,0,0.00
2013-4-11,52.0,45.6,42.6,45.9,37.9,23.8,98,76,47,30.15,29.83,1,1,0,0.00
2013-4-12,42.6,37.7,35.4,37.1,29.1,18.1,98,74,40,30.21,29.83,1,1,0,0.00
2013-4-13,50.2,41.1,33.8,39.3,36.2,33.3,98,83,60,29.92,29.77,1,1,0,1.73
2013-4-14,55.9,46.3,36.5,41.2,32.0,24.3,95,61,36,30.18,29.89,1,1,0,0.00
2013-4-15,59.4,43.4,30.0,39.2,33.4,25.8,89,70,36,30.39,30.18,1,1,0,0.00
2013-4-16,59.7,51.0,36.9,49.9,40.9,33.9,94,70,50,30.39,29.95,1,1,0,0.00
2013-4-17,65.8,55.4,40.5,52.1,34.7,25.5,84,50,24,30.30,29.98,1,1,0,0.00
2013-4-18,60.4,47.1,33.8,39.6,33.2,26.5,77,60,35,30.48,30.12,1,1,0,0.00
2013-4-19,69.4,57.9,47.5,62.7,51.6,39.3,98,80,57,30.15,29.59,1,1,0,0.00
2013-4-20,62.6,53.6,43.2,62.0,37.9,17.5,98,60,30,30.18,29.59,1,1,0,0.30
2013-4-21,53.1,42.4,33.3,25.8,20.0,14.6,72,42,28,30.66,30.18,1,1,0,0.00
2013-4-22,56.3,41.8,31.8,34.1,27.5,21.8,74,58,37,30.77,30.60,1,1,0,0.00
2013-4-23,42.1,40.2,37.6,41.6,36.7,28.0,98,88,66,30.60,30.15,1,1,0,0.00
2013-4-24,64.2,50.0,41.5,53.0,45.4,41.0,98,85,62,30.15,29.77,1,1,0,0.00
2013-4-25,63.9,55.7,44.8,52.1,33.8,20.6,94,49,25,30.27,29.77,1,1,0,0.00
2013-4-26,64.2,48.9,39.7,38.0,30.1,21.2,87,51,26,30.42,30.27,1,1,0,0.00
2013-4-27,68.7,49.3,35.2,42.9,36.0,30.6,95,64,34,30.42,30.27,1,1,0,0.00
2013-4-28,67.5,49.9,36.3,45.8,39.1,34.4,94,69,36,30.36,30.24,1,1,0,0.00
2013-4-29,64.4,51.7,40.5,48.4,40.2,34.6,84,66,42,30.27,30.18,1,1,0,0.00
2013-4-30,71.1,52.6,38.7,46.5,36.0,29.0,89,57,29,30.39,30.24,1,1,0,0.00
2013-5-1,68.9,50.8,35.6,45.2,38.0,32.9,94,65,33,30.51,30.39,1,1,0,0.00
2013-5-2,78.1,52.1,39.7,51.3,40.5,35.1,97,68,30,30.54,30.42,1,1,0,0.00
2013-5-3,63.1,48.8,37.9,44.2,38.2,35.0,96,69,38,30.57,30.36,1,1,0,0.00
2013-5-4,64.4,47.5,37.9,49.6,38.6,34.8,98,73,42,30.42,30.30,1,1,0,0.00
2013-5-5,66.0,47.4,33.8,47.7,38.6,33.0,98,74,35,30.36,30.24,1,1,0,0.12
2013-5-6,62.1,47.3,34.9,50.9,43.1,34.1,98,87,53,30.30,30.18,1,1,0,0.00
2013-5-7,69.8,56.1,44.2,58.3,49.8,43.7,98,82,49,30.18,30.09,1,1,0,0.00
2013-5-8,72.3,58.4,48.0,61.9,53.9,47.5,98,86,60,30.27,30.09,1,1,0,0.00
2013-5-9,67.5,57.6,54.3,62.1,56.0,53.4,98,95,74,30.09,29.95,1,1,0,0.00
2013-5-10,64.8,57.3,53.1,61.1,55.3,52.5,98,93,78,30.01,29.92,1,1,0,0.00
2013-5-11,71.8,61.6,52.5,66.0,58.4,52.0,98,90,70,29.95,29.71,1,1,0,0.00
2013-5-12,70.9,60.5,49.6,63.6,50.5,24.9,98,74,37,29.80,29.53,1,1,0,0.00
2013-5-13,64.8,51.5,42.8,35.3,27.7,23.7,56,40,28,30.01,29.80,1,1,0,0.00
2013-5-14,66.0,52.1,37.9,39.2,30.7,24.3,75,47,25,30.06,29.92,1,1,0,0.00
2013-5-15,71.4,50.9,36.9,50.0,39.8,32.5,91,69,28,30.06,29.65,1,1,0,0.00
2013-5-16,80.6,64.5,46.2,58.8,41.5,31.4,98,53,21,29.80,29.56,1,1,0,0.00
2013-5-17,72.1,58.1,48.4,44.7,39.8,37.0,78,52,32,30.21,29.80,1,1,0,0.96
2013-5-18,74.5,55.6,42.8,54.3,45.8,36.2,93,73,32,30.30,30.18,1,1,0,0.00
2013-5-19,64.6,54.2,50.7,52.3,49.6,47.0,97,85,60,30.42,30.24,1,1,0,0.00
2013-5-20,78.1,63.3,51.3,66.0,57.4,50.4,98,83,57,30.27,29.92,1,1,0,0.08
2013-5-21,63.5,55.2,49.8,57.2,52.9,49.3,98,92,71,30.09,29.95,1,1,0,0.00
2013-5-22,60.6,53.9,50.0,56.5,52.0,49.5,98,94,73,30.09,29.89,1,1,0,0.96
2013-5-23,65.7,58.4,51.1,62.8,56.7,50.5,98,94,80,29.98,29.83,1,1,0,0.00
2013-5-24,68.5,61.6,51.1,67.4,60.3,50.5,98,96,85,29.86,29.65,1,1,0,0.00
2013-5-25,54.1,49.6,40.5,53.3,48.8,39.9,98,97,87,29.86,29.65,1,1,0,0.00
2013-5-26,62.2,50.6,40.3,50.0,40.1,35.5,98,71,40,30.06,29.65,1,1,0,0.00
2013-5-27,72.5,57.0,41.4,50.3,36.8,30.3,91,52,24,30.15,30.01,1,1,0,0.00
2013-5-28,79.7,57.3,41.0,54.9,43.1,34.6,94,64,24,30.30,30.15,1,1,0,2.02
2013-5-29,66.2,57.1,50.0,62.0,55.5,48.3,98,95,82,30.21,30.01,1,1,0,0.00
2013-5-30,88.2,72.8,56.7,75.3,60.7,56.1,98,70,39,30.06,29.95,1,1,0,0.00
2013-5-31,96.1,77.5,61.2,73.9,63.3,57.0,98,67,32,30.06,29.83,1,1,0,0.00
2013-6-1,97.3,79.8,65.5,75.2,64.4,55.5,96,64,31,29.89,29.71,1,1,0,0.00
2013-6-2,89.1,76.5,64.8,70.1,64.0,58.8,91,68,38,29.80,29.59,1,1,0,0.00
2013-6-3,76.6,68.3,59.5,71.1,62.4,46.9,98,83,49,29.83,29.65,1,1,0,0.00
2013-6-4,75.6,62.1,51.3,49.2,42.5,37.3,78,51,31,30.06,29.77,1,1,0,0.00
2013-6-5,79.3,60.6,48.7,52.2,46.3,39.6,88,62,26,30.18,30.06,1,1,0,0.00
2013-6-6,79.0,62.6,53.6,54.8,51.7,44.2,92,71,31,30.21,30.12,1,1,0,0.00
2013-6-7,57.6,55.1,52.2,56.5,53.2,50.3,98,93,81,30.15,29.89,1,1,0,0.00
2013-6-8,77.2,63.3,52.7,63.4,57.3,52.2,98,83,55,29.95,29.65,1,1,0,0.00
2013-6-9,83.3,68.5,55.6,67.0,54.7,48.0,98,66,34,30.15,29.95,1,1,0,0.00
2013-6-10,74.3,62.1,54.1,59.1,55.2,52.6,98,80,50,30.21,30.04,1,1,0,0.00
2013-6-11,61.0,56.6,54.3,57.6,55.3,53.8,98,95,82,30.06,29.59,1,1,0,0.00
2013-6-12,73.0,62.2,55.2,64.6,56.4,52.9,98,83,56,29.80,29.53,1,1,0,0.00
2013-6-13,80.8,60.2,51.6,62.4,55.0,51.1,98,85,40,29.80,29.71,1,1,0,0.00
2013-6-14,71.8,62.0,53.4,62.9,56.3,51.6,98,83,50,29.74,29.65,1,1,0,4.82
2013-6-15,84.9,67.2,52.9,60.1,48.4,37.3,98,58,22,29.92,29.74,1,1,0,0.00
2013-6-16,81.1,65.8,51.6,60.4,54.7,50.1,97,70,41,29.95,29.68,1,1,0,0.00
2013-6-17,90.7,71.4,41.3,68.9,58.8,31.5,98,70,32,29.97,29.71,1,1,0,0.00
2013-6-18,79.5,63.9,57.9,69.6,58.6,54.5,98,84,51,29.95,29.86,1,1,0,0.00
2013-6-19,80.1,64.7,55.6,57.8,50.4,44.0,98,65,30,30.12,29.89,1,1,0,0.00
2013-6-20,84.7,63.7,49.3,58.4,50.8,44.8,96,68,31,30.27,30.12,1,1,0,0.00
2013-6-26,74.8,65.9,41.3,71.7,64.4,31.5,98,95,38,29.97,29.77,1,1,0,16.62
2013-6-27,72.1,63.0,58.1,65.4,60.8,57.5,98,93,72,29.89,29.74,1,1,0,0.00
2013-6-28,77.9,64.9,55.8,76.6,63.4,55.2,98,95,77,29.74,29.44,1,1,0,0.00
2013-6-29,80.6,70.9,64.2,73.9,66.8,63.6,98,88,68,29.68,29.47,1,1,0,0.00
2013-6-30,90.3,74.9,63.5,76.7,68.3,62.9,98,82,52,29.92,29.65,1,1,0,0.00
2013-7-1,81.3,71.2,67.1,74.2,68.9,66.0,98,93,73,30.09,29.89,1,1,0,0.00
2013-7-2,73.6,65.1,58.5,73.0,64.4,57.9,98,98,90,30.21,30.06,1,1,0,0.00
2013-7-3,74.1,67.1,58.8,72.3,64.1,58.3,98,91,74,30.21,30.06,1,1,0,0.00
2013-7-4,97.7,82.5,70.9,81.0,73.3,70.3,98,76,46,30.18,29.98,1,1,0,0.00
2013-7-5,100.2,84.9,73.6,80.8,73.3,70.7,97,71,42,30.09,29.89,1,1,0,0.00
2013-7-6,98.1,83.4,73.4,79.1,70.7,65.4,92,69,38,30.04,29.83,1,1,0,1.58
2013-7-7,97.3,79.6,69.1,74.8,67.9,61.3,97,71,35,29.98,29.80,1,1,0,0.05
2013-7-8,84.0,73.5,65.3,76.2,68.5,60.1,98,85,63,30.04,29.89,1,1,0,0.00
2013-7-9,78.1,69.1,64.6,66.9,64.0,60.8,98,85,60,30.09,30.01,1,1,0,0.00
2013-7-10,77.4,68.9,63.7,72.0,67.4,63.1,98,95,81,30.09,29.77,1,1,0,0.00
2013-7-11,86.4,74.5,68.5,82.1,71.6,67.8,98,91,66,29.95,29.77,1,1,0,0.00
2013-7-12,84.2,71.7,63.9,68.0,57.9,49.9,98,64,34,30.15,29.92,1,1,0,0.29
2013-7-13,84.6,70.8,62.1,65.2,60.6,53.4,94,73,39,30.27,30.15,1,1,0,0.00
2013-7-14,95.0,76.9,66.2,77.7,69.3,64.6,98,80,45,30.30,30.15,1,1,0,0.00
2013-7-15,95.5,78.3,68.4,77.6,70.2,67.2,98,79,47,30.21,29.98,1,1,0,0.00
2013-7-16,99.5,79.5,68.2,76.5,68.1,64.7,93,71,36,30.12,30.01,1,1,0,0.00
2013-7-17,93.6,79.3,68.0,76.3,70.8,66.7,98,77,51,30.18,29.92,1,1,0,0.00
2013-7-18,95.4,77.3,70.9,82.7,71.4,68.5,98,84,46,30.06,29.89,1,1,0,0.00
2013-7-19,96.1,83.7,68.7,80.4,72.2,67.1,98,72,41,29.95,29.53,1,1,0,0.00
2013-7-20,95.0,83.7,72.7,75.7,67.1,61.8,78,59,39,29.71,29.47,1,1,0,0.00
2013-7-21,85.8,73.4,65.7,65.8,62.5,51.9,95,71,33,29.95,29.71,1,1,0,0.00
2013-7-22,80.1,70.2,65.8,71.2,66.5,62.8,98,89,65,30.06,29.89,1,1,0,0.00
2013-7-23,72.1,68.4,66.4,71.5,67.6,65.8,98,97,92,29.89,29.53,1,1,0,1.24
2013-7-24,90.5,75.3,64.2,80.9,65.9,53.7,98,75,52,29.89,29.59,1,1,0,0.00
2013-7-25,68.4,63.3,59.7,61.1,52.7,47.8,98,69,52,30.12,29.92,1,1,0,0.00
2013-7-26,76.3,67.2,61.7,67.1,64.2,60.8,98,91,67,30.04,29.92,1,1,0,0.00
2013-7-27,88.9,72.7,61.2,70.1,63.0,55.9,98,76,40,29.98,29.89,1,1,0,0.00
2013-7-28,73.4,67.4,63.5,69.9,65.9,62.9,98,95,82,30.06,29.98,1,1,0,0.00
2013-7-29,76.5,69.0,64.2,70.3,66.5,63.6,98,92,78,30.09,29.98,1,1,0,0.25
2013-7-30,85.8,71.7,61.3,74.5,59.5,50.8,98,70,37,30.09,29.95,1,1,0,0.00
2013-7-31,87.4,70.0,59.4,66.7,59.1,53.0,97,72,33,30.12,29.95,1,1,0,0.00
2013-8-1,86.2,69.0,59.5,73.0,63.7,59.0,98,84,50,30.04,29.83,1,1,0,0.00
2013-8-2,78.8,70.4,65.1,72.0,64.5,54.7,98,83,45,29.83,29.68,1,1,0,0.00
2013-8-3,81.0,71.3,62.1,66.2,58.9,52.6,94,67,40,29.80,29.65,1,1,0,0.61
2013-8-4,85.6,69.3,59.0,64.0,55.6,51.4,91,64,36,29.86,29.68,1,1,0,0.00
2013-8-5,77.4,64.9,55.8,57.1,47.1,37.7,89,56,29,30.01,29.83,1,1,0,0.00
2013-8-6,84.4,64.1,50.2,59.9,50.3,40.4,91,64,30,30.15,30.01,1,1,0,0.00
2013-8-7,79.2,65.7,54.0,65.8,58.2,53.1,98,78,53,30.18,30.06,1,1,0,0.00
2013-8-8,82.0,71.0,63.0,71.1,64.6,55.0,97,81,65,30.09,29.95,1,1,0,0.00
2013-8-9,73.8,69.7,67.5,72.9,69.0,66.3,98,97,94,30.01,29.71,1,1,0,0.58
2013-8-10,84.4,72.9,59.2,76.2,59.9,46.6,98,68,33,29.98,29.77,1,1,0,3.84
2013-8-11,82.6,66.3,53.4,62.5,54.5,49.5,97,69,35,30.06,29.95,1,1,0,3.84
2013-8-12,85.1,69.4,57.4,67.0,56.9,51.9,98,69,38,30.01,29.83,1,1,0,3.84
2013-8-13,74.3,67.5,61.7,68.6,64.0,58.2,98,89,77,29.89,29.68,1,1,0,3.84
2013-8-14,78.3,68.0,59.7,64.9,54.9,47.4,98,67,41,29.92,29.59,1,1,0,0.63
2013-8-15,80.8,65.7,54.0,58.8,50.8,45.7,90,62,35,30.06,29.92,1,1,0,0.00
2013-8-16,81.9,66.6,54.1,62.1,54.4,48.6,98,69,37,30.15,30.06,1,1,0,0.00
2013-8-17,83.1,66.1,55.9,66.1,56.7,53.0,98,74,40,30.27,30.15,1,1,0,0.00
2013-8-18,83.5,67.8,56.7,66.4,60.1,55.7,98,78,48,30.27,30.01,1,1,0,0.00
2013-8-19,85.6,72.5,59.7,68.6,60.8,56.7,98,70,42,30.04,29.83,1,1,0,0.00
2013-8-20,87.6,71.8,61.5,71.5,62.2,57.1,98,75,41,30.04,29.89,1,1,0,0.00
2013-8-21,88.5,72.4,61.5,74.2,64.5,60.9,98,79,49,30.09,29.95,1,1,0,0.00
2013-8-22,89.1,76.4,63.7,73.3,65.3,59.2,98,72,41,30.01,29.71,1,1,0,0.00
2013-8-23,79.3,70.6,60.3,68.9,57.7,46.8,90,66,33,30.09,29.71,1,1,0,0.00
2013-8-24,78.8,63.4,52.3,58.6,45.9,40.3,83,56,28,30.30,30.09,1,1,0,0.00
2013-8-25,81.9,63.8,51.1,63.6,53.0,47.0,97,71,35,30.39,30.12,1,1,0,0.00
2013-8-26,83.3,71.7,61.3,68.8,62.4,55.5,94,74,53,30.15,29.77,1,1,0,0.04
2013-8-27,84.0,72.1,64.0,70.1,65.3,62.4,98,81,52,29.86,29.77,1,1,0,0.00
2013-8-28,80.1,67.4,61.2,72.3,64.4,60.6,98,91,67,29.98,29.83,1,1,0,0.00
2013-8-29,68.0,65.4,62.6,65.4,62.0,58.5,98,89,73,30.06,29.95,1,1,0,0.05
2013-8-30,78.6,69.6,62.6,68.3,64.0,60.5,97,83,62,29.98,29.74,1,1,0,0.00
2013-8-31,83.5,73.7,67.6,74.3,69.2,65.5,97,86,67,29.83,29.71,1,1,0,0.00
2013-9-1,86.2,74.6,69.1,75.6,70.3,66.3,98,88,60,29.86,29.71,1,1,0,0.00
2013-9-2,75.4,69.5,67.6,74.8,68.8,67.1,98,98,92,29.86,29.71,1,1,0,0.00
2013-9-3,79.5,72.2,64.6,77.1,69.1,61.3,98,90,80,29.80,29.68,1,1,0,0.00
2013-9-4,78.3,68.8,60.1,64.8,57.5,51.7,97,70,43,29.86,29.71,1,1,0,0.00
2013-9-5,67.1,61.1,49.6,63.4,55.2,45.0,98,82,61,30.15,29.83,1,1,0,0.00
2013-9-6,68.9,56.3,43.3,52.3,43.6,36.6,98,67,33,30.27,30.06,1,1,0,0.08
2013-9-7,76.5,64.4,51.3,54.9,50.2,45.2,86,63,35,30.06,29.80,1,1,0,0.00
2013-9-8,75.0,63.6,48.4,61.2,47.8,37.6,75,58,33,30.04,29.71,1,1,0,0.00
2013-9-9,69.8,57.3,43.2,54.2,44.3,37.7,98,66,35,30.24,30.04,1,1,0,0.00
2013-9-10,73.6,64.1,53.6,69.6,60.0,47.6,97,87,72,30.15,30.01,1,1,0,0.00
2013-9-11,91.4,77.4,64.4,77.0,69.4,63.8,98,79,48,30.04,29.83,1,1,0,0.00
2013-9-12,81.9,70.8,65.1,72.9,67.8,63.8,98,91,68,29.92,29.68,1,1,0,0.00
2013-9-13,73.6,65.9,58.1,71.2,64.9,57.5,98,97,85,29.71,29.59,1,1,0,0.00
2013-9-14,71.1,61.2,53.1,63.3,55.9,50.4,98,84,56,30.04,29.71,1,1,0,0.00
2013-9-15,68.7,58.7,47.8,55.8,49.5,43.3,98,75,40,30.18,30.01,1,1,0,0.00
2013-9-16,68.7,59.0,46.2,59.5,50.9,34.4,94,76,53,30.27,29.95,1,1,0,0.00
2013-9-17,60.1,49.7,37.8,46.6,39.3,33.4,95,70,38,30.42,30.24,1,1,0,0.00
2013-9-18,68.5,55.2,42.8,55.3,46.6,41.2,98,76,37,30.30,30.09,1,1,0,0.00
2013-9-19,70.9,58.2,47.1,58.2,49.9,45.5,98,77,46,30.15,30.01,1,1,0,0.00
2013-9-20,72.5,58.8,48.6,63.8,53.3,48.0,98,84,48,30.09,30.01,1,1,0,0.00
2013-9-21,69.8,61.1,49.8,64.4,58.4,49.3,98,91,75,30.04,29.71,1,1,0,0.00
2013-9-22,71.1,63.5,52.3,65.7,57.2,43.2,98,82,48,29.83,29.59,1,1,0,0.00
2013-9-23,61.3,53.0,44.2,43.1,40.5,38.0,82,64,44,29.98,29.77,1,1,0,0.00
2013-9-24,64.6,51.7,41.5,47.0,41.8,37.4,94,72,38,29.98,29.83,1,1,0,0.00
2013-9-25,64.9,53.9,42.8,53.4,46.6,42.3,98,78,48,29.98,29.89,1,1,0,0.00
2013-9-26,64.8,55.8,47.1,52.1,48.0,43.3,95,76,48,30.15,29.98,1,1,0,0.00
2013-9-27,67.8,58.5,50.4,54.0,49.9,45.6,96,74,51,30.27,30.12,1,1,0,0.00
2013-9-28,69.8,56.8,48.0,60.5,51.1,47.5,98,84,50,30.36,30.24,1,1,0,0.00
2013-9-29,62.8,53.4,46.6,58.5,50.9,46.0,98,92,73,30.27,30.12,1,1,0,0.00
2013-9-30,59.2,51.1,42.8,55.9,49.3,42.3,98,94,82,30.15,29.98,1,1,0,0.00
2013-10-1,71.1,56.8,45.5,63.4,50.6,45.0,98,82,46,29.98,29.83,1,1,0,0.00
2013-10-2,77.0,64.0,52.0,63.3,56.0,51.4,98,78,49,29.92,29.77,1,1,0,0.00
2013-10-3,75.0,62.8,52.9,61.2,53.0,42.8,98,75,32,30.06,29.89,1,1,0,0.00
2013-10-4,70.0,59.7,50.0,57.7,52.4,46.5,98,79,48,30.09,30.01,1,1,0,0.00
2013-10-5,65.8,60.4,57.4,58.0,53.8,48.6,97,80,57,30.15,30.06,1,1,0,0.00
2013-10-6,58.1,55.8,53.4,56.1,52.0,43.6,98,88,64,30.27,30.12,1,1,0,0.00
2013-10-7,68.5,63.1,56.7,67.4,62.2,56.1,98,97,87,30.18,29.77,1,1,0,0.00
2013-10-8,63.1,55.7,43.7,57.9,43.4,34.6,95,66,36,30.39,29.86,1,1,0,0.00
2013-10-9,58.8,47.8,38.8,46.5,42.2,37.8,98,82,53,30.48,30.36,1,1,0,0.00
2013-10-10,62.1,50.3,39.9,53.7,47.0,39.4,98,89,62,30.39,30.18,1,1,0,0.00
2013-10-11,65.8,54.6,45.5,56.8,49.9,45.0,98,86,52,30.18,30.09,1,1,0,0.00
2013-10-12,56.8,53.0,45.9,55.7,51.5,45.3,98,95,84,30.42,30.15,1,1,0,0.00
2013-10-13,60.6,49.1,41.0,54.8,44.9,40.5,98,87,53,30.45,30.39,1,1,0,0.00
2013-10-14,59.2,49.7,36.9,54.3,44.9,36.3,98,85,60,30.42,30.24,1,1,0,0.00
2013-10-15,64.0,57.1,53.4,54.9,52.7,51.0,98,86,65,30.30,30.18,1,1,0,0.00
2013-10-16,62.2,56.6,50.7,58.6,53.9,50.2,98,91,71,30.21,29.92,1,1,0,0.00
2013-10-17,71.2,60.3,53.6,61.1,54.4,49.1,98,83,51,29.92,29.71,1,1,0,0.00
2013-10-18,67.1,59.7,49.8,60.7,49.2,38.0,98,71,41,29.89,29.59,1,1,0,0.00
2013-10-19,63.9,53.7,41.0,49.9,43.0,36.8,90,68,45,29.98,29.74,1,1,0,0.00
2013-10-20,60.4,54.1,44.2,51.9,39.0,29.1,95,60,34,30.01,29.65,1,1,0,0.00
2013-10-21,60.3,49.4,37.6,48.9,41.2,33.0,95,74,46,30.12,29.98,1,1,0,0.00
2013-10-22,64.4,53.5,44.2,56.9,47.8,37.3,98,82,66,29.98,29.71,1,1,0,0.00
2013-10-23,55.0,46.2,36.1,43.8,35.7,29.4,98,69,38,29.83,29.59,1,1,0,0.00
2013-10-24,53.1,45.7,39.0,33.8,28.6,24.4,76,52,36,29.86,29.59,1,1,0,0.00
2013-10-25,50.5,41.3,32.7,37.0,26.7,20.5,82,58,36,30.09,29.83,1,1,0,0.00
2013-10-26,54.0,43.1,29.5,37.1,28.0,24.1,91,58,34,30.12,29.83,1,1,0,0.00
2013-10-27,55.9,47.1,36.7,43.0,33.0,23.7,87,60,38,30.04,29.77,1,1,0,0.00
2013-10-28,57.2,43.2,32.9,36.7,27.9,19.5,79,56,36,30.33,30.01,1,1,0,0.00
2013-10-29,45.3,34.7,26.2,25.1,21.1,16.0,80,59,31,30.42,30.30,1,1,0,0.00
2013-10-30,48.6,37.9,28.9,35.2,29.7,23.6,88,73,50,30.36,30.12,1,1,0,0.00
2013-10-31,58.6,44.6,31.1,58.1,42.5,29.8,98,93,77,30.21,29.77,1,1,0,0.00
2013-11-1,70.7,63.2,55.4,62.2,56.0,49.7,98,79,51,29.77,29.36,1,1,0,0.00
2013-11-2,62.4,52.8,41.3,51.6,44.6,31.5,98,77,38,29.74,29.59,1,1,0,22.27
2013-11-3,50.9,41.8,30.0,47.8,29.0,14.0,95,63,33,30.42,29.71,1,1,0,0.00
2013-11-4,40.5,31.6,25.2,18.2,13.5,11.1,63,48,31,30.69,30.42,1,1,0,0.00
2013-11-5,47.1,35.8,24.8,32.9,24.5,14.3,83,64,48,30.69,30.51,1,1,0,0.00
2013-11-6,57.6,48.1,38.5,47.3,40.1,31.9,87,74,56,30.51,29.98,1,1,0,0.00
2013-11-7,62.8,52.9,37.6,58.0,47.8,30.9,94,83,66,30.01,29.65,1,1,0,0.00
2013-11-8,47.1,39.2,32.9,31.4,25.0,21.1,77,57,40,30.06,29.77,1,1,0,0.00
2013-11-9,44.6,38.9,33.1,25.4,20.1,17.3,55,47,36,30.15,30.01,1,1,0,0.00
2013-11-10,49.8,43.8,37.9,43.7,35.8,23.2,93,74,55,30.04,29.71,1,1,0,0.00
2013-11-11,48.2,43.3,37.9,32.5,25.9,22.8,68,51,38,30.04,29.77,1,1,0,0.00
2013-11-12,46.9,35.6,27.3,31.6,17.3,9.5,67,47,41,30.12,29.83,1,1,0,0.00
2013-11-13,34.2,28.8,24.1,12.1,9.1,5.7,54,43,33,30.24,30.06,1,1,0,0.00
2013-11-14,48.9,37.3,28.8,24.4,18.7,9.1,59,47,37,30.09,29.95,1,1,0,0.00
2013-11-15,56.3,39.9,29.7,28.0,22.8,17.4,75,53,26,30.15,30.04,1,1,0,0.00
2013-11-16,52.9,39.7,33.1,33.6,28.9,23.9,94,68,34,30.30,30.12,1,1,0,0.00
2013-11-17,50.9,44.2,32.5,50.4,43.2,30.9,98,96,92,30.30,29.83,1,1,0,0.00
2013-11-18,61.3,54.2,45.9,58.8,46.2,30.4,98,77,46,29.86,29.47,1,1,0,0.00
2013-11-19,46.4,37.8,30.7,31.4,17.1,10.9,56,43,33,30.21,29.59,1,1,0,0.00
2013-11-20,40.1,31.7,24.6,12.6,9.8,6.8,52,40,29,30.57,30.21,1,1,0,0.00
2013-11-21,44.4,32.1,21.2,20.4,14.3,9.2,68,49,28,30.60,30.33,1,1,0,0.00
2013-11-22,43.3,39.0,31.6,38.9,33.2,19.8,95,80,60,30.33,29.77,1,1,0,0.00
2013-11-23,41.5,37.4,29.5,41.0,23.6,11.4,98,60,32,29.86,29.71,1,1,0,0.00
2013-11-24,29.5,24.1,21.4,14.2,3.5,-2.2,56,41,32,29.86,29.71,1,1,0,0.00
2013-11-25,41.3,25.5,17.1,31.5,1.0,-5.8,38,32,25,30.30,29.97,1,1,0,22.27
2013-11-26,37.6,33.7,28.6,24.2,17.4,5.7,66,52,37,30.30,30.04,1,1,0,0.00
2013-11-27,54.3,49.2,34.3,53.8,48.0,24.2,98,95,66,30.04,29.18,1,1,0,0.00
2013-11-28,36.9,30.8,22.8,32.5,14.8,3.0,84,52,34,30.39,29.36,1,1,0,0.00
2013-11-29,29.7,23.3,16.0,7.9,3.6,-0.2,55,42,31,30.71,30.39,1,1,0,0.00
2013-11-30,33.1,23.6,11.3,19.3,10.2,-0.5,69,56,49,30.74,30.36,1,1,0,0.00
2013-12-1,37.4,35.1,32.0,36.5,30.6,19.7,98,84,60,30.39,29.95,1,1,0,0.00
2013-12-2,40.3,37.3,35.1,39.6,36.6,34.6,98,97,94,30.01,29.89,1,1,0,0.00
2013-12-3,46.0,37.5,28.6,40.8,34.6,27.5,98,90,61,29.92,29.83,1,1,0,0.00
2013-12-4,41.7,33.2,27.9,29.9,26.4,23.7,98,78,53,30.15,29.89,1,1,0,0.00
2013-12-5,46.8,38.8,27.1,46.2,37.0,24.5,98,93,86,30.21,29.89,1,1,0,0.00
2013-12-6,49.3,43.6,34.2,48.7,40.5,30.8,98,89,70,30.15,29.83,1,1,0,0.00
2013-12-7,38.3,32.7,24.1,34.2,22.5,10.4,98,69,41,30.39,30.06,1,1,0,0.00
2013-12-8,31.5,27.3,22.1,14.0,10.8,7.9,63,50,40,30.54,30.36,1,1,0,0.00
2013-12-9,40.3,33.7,27.7,39.8,29.2,10.6,98,85,48,30.45,29.83,1,1,0,0.00
2013-12-10,36.5,31.2,23.9,33.8,28.2,13.9,98,89,65,29.95,29.71,1,1,0,0.00
2013-12-11,33.1,25.6,19.9,16.1,13.3,10.6,78,60,42,30.12,29.92,1,1,0,0.00
2013-12-12,23.7,18.6,13.3,16.9,2.5,-5.1,76,50,33,30.21,29.98,1,1,0,0.00
2013-12-13,29.5,19.3,10.4,14.9,4.5,-5.6,60,52,45,30.33,29.89,1,1,0,0.00
2013-12-14,23.2,13.4,7.7,20.5,0.6,-7.8,90,57,35,30.54,30.18,1,1,0,0.00
2013-12-15,32.5,22.7,15.3,32.0,20.5,11.8,98,91,82,30.18,29.36,1,1,0,0.00
2013-12-16,26.4,20.1,10.0,18.2,8.1,-4.7,93,62,34,30.15,29.65,1,1,0,0.00
2013-12-17,21.0,11.1,0.0,12.9,0.4,-13.1,88,61,49,30.21,29.89,1,1,0,0.00
2013-12-18,33.3,23.1,13.6,19.0,14.4,9.0,84,70,45,29.98,29.77,1,1,0,0.00
2013-12-19,38.1,30.3,19.8,23.8,20.3,15.2,84,67,48,30.04,29.86,1,1,0,0.00
2013-12-20,46.2,36.3,28.9,35.4,29.5,23.0,91,77,58,30.06,29.83,1,1,0,0.00
2013-12-21,48.6,39.6,33.6,41.6,36.5,32.5,97,89,71,29.92,29.77,1,1,0,0.00
2013-12-22,40.3,33.9,30.2,39.8,33.4,29.7,98,98,97,30.04,29.83,1,1,0,0.00
2013-12-23,34.2,32.3,29.5,33.7,31.8,29.0,98,98,98,30.09,29.95,1,1,0,0.00
2013-12-24,33.8,30.5,22.8,33.1,21.9,8.9,98,72,45,30.15,30.01,1,1,0,0.00
2013-12-25,22.8,16.3,9.1,9.5,0.9,-6.3,60,50,40,30.48,30.15,1,1,0,0.00
2013-12-26,32.2,22.8,16.0,27.6,16.2,3.3,94,76,56,30.45,30.01,1,1,0,0.00
2013-12-27,34.0,23.7,15.1,25.4,17.7,13.2,96,79,55,30.18,30.06,1,1,0,0.00
2013-12-28,42.3,32.4,20.3,29.4,23.8,15.3,88,71,53,30.15,29.89,1,1,0,0.00
2013-12-29,42.1,34.2,27.3,37.1,30.7,23.4,98,87,70,30.01,29.42,1,1,0,0.00
2013-12-30,41.0,30.1,13.3,37.8,22.1,-1.7,98,74,45,30.15,29.47,1,1,0,0.00
2013-12-31,20.7,13.4,8.4,1.7,-2.3,-5.7,52,48,36,30.15,29.95,1,1,0,0.00
2014-1-1,24.6,18.4,12.9,7.8,3.5,-1.2,74,52,37,30.33,30.09,1,1,0,0.00
2014-1-2,17.2,6.4,-2.7,9.4,-0.3,-7.8,78,73,53,30.33,29.86,1,1,0,0.00